Forester — E5U2629 — position and weather

sailwx.info

Track history (hours):
 
Tides and Currents Weather Stations Pressure Air Temp Water Temp Dewpoint Dewpoint Depression Visibility Wind Speed Wind Dir Waves Ship Positions

Forester

Last reported at 2017-Nov-27 07:48 UTC. Time now 2017-Dec-11 22:52 UTC.
Position N 36°59' E 013°42'.
Warning: this ship's position is 14 days out of date.

Length 89 m; draft 6.7 m.

Type: Cargo ship. MMSI: 518682000.

Date/timePositionNaut miles runAvg speedWind from/ knotsBaromVisibWave heightAir tempDewpointWater temp
2017-Nov-27 07:48N 36°59' E 013°42'2 5.0
2017-Nov-27 07:28N 36°58' E 013°44'3 4.8
2017-Nov-27 06:51N 36°57' E 013°48'2 4.8
2017-Nov-27 06:30N 36°56' E 013°50'2 4.7
2017-Nov-27 06:00N 36°55' E 013°52'3 5.0
2017-Nov-27 05:26N 36°54' E 013°55'2 5.5
2017-Nov-27 04:59N 36°53' E 013°58'3 5.5
2017-Nov-27 04:30N 36°52' E 014°01'3 5.3
2017-Nov-27 04:00N 36°50' E 014°04'3 5.4
2017-Nov-27 03:30N 36°49' E 014°07'3 5.7
2017-Nov-27 03:00N 36°48' E 014°10'3 5.6
2017-Nov-27 02:30N 36°48' E 014°14'3 5.7
2017-Nov-27 02:00N 36°47' E 014°17'3 5.4
2017-Nov-27 01:30N 36°46' E 014°20'2 5.0
2017-Nov-27 01:00N 36°44' E 014°23'2 4.4
2017-Nov-27 00:30N 36°44' E 014°25'2 4.2
2017-Nov-27 00:00N 36°43' E 014°28'2 4.0
2017-Nov-26 23:30N 36°42' E 014°30'390 7.6
2017-Nov-24 20:06N 36°23' E 022°35'1 8.4
2017-Nov-24 20:00N 36°23' E 022°36'20 8.8
2017-Nov-24 17:46N 36°26' E 023°01'35 7.8
2017-Nov-24 13:17N 36°50' E 023°32'4 8.6
2017-Nov-24 12:49N 36°53' E 023°35'6 8.6
2017-Nov-24 12:07N 36°58' E 023°38'3 8.4
2017-Nov-24 11:44N 37°01' E 023°41'3 8.5
2017-Nov-24 11:22N 37°04' E 023°43'3 8.5
2017-Nov-24 10:57N 37°07' E 023°45'7 8.6
2017-Nov-24 10:12N 37°12' E 023°50'3 8.8
2017-Nov-24 09:49N 37°15' E 023°52'3 9.1
2017-Nov-24 09:30N 37°17' E 023°54'6 8.9
2017-Nov-24 08:53N 37°22' E 023°57'3 8.8
2017-Nov-24 08:30N 37°25' E 023°60'5 9.0
2017-Nov-24 07:57N 37°29' E 024°03'4 8.9
2017-Nov-24 07:30N 37°33' E 024°05'5 8.8
2017-Nov-24 06:59N 37°37' E 024°09'4 9.1
2017-Nov-24 06:30N 37°40' E 024°12'5 8.9
2017-Nov-24 05:59N 37°44' E 024°15'4 8.7
2017-Nov-24 05:30N 37°46' E 024°19'4 8.5
2017-Nov-24 05:00N 37°49' E 024°23'4 8.8
2017-Nov-24 04:30N 37°52' E 024°28'4 8.6
2017-Nov-24 04:00N 37°55' E 024°32'4 8.6
2017-Nov-24 03:30N 37°58' E 024°35'137 8.3
2017-Nov-23 11:01N 40°15' E 024°29'0 8.9
2017-Nov-23 11:00N 40°15' E 024°29'4 8.6
2017-Nov-23 10:30N 40°20' E 024°29'4 8.4
2017-Nov-23 10:00N 40°24' E 024°28'5 8.5
2017-Nov-23 09:21N 40°29' E 024°27'4 8.7
2017-Nov-23 08:54N 40°33' E 024°26'4 8.9
2017-Nov-23 08:30N 40°37' E 024°25'4 8.9
2017-Nov-23 08:00N 40°41' E 024°25'4 8.6
2017-Nov-23 07:30N 40°45' E 024°26'4 8.7
2017-Nov-23 07:00N 40°50' E 024°27'4 8.6
2017-Nov-23 06:30N 40°54' E 024°28'3 5.8
2017-Nov-23 06:01N 40°57' E 024°28'0 0.1
2017-Nov-23 05:30N 40°57' E 024°28'0 0.0
2017-Nov-23 05:00N 40°57' E 024°28'0 0.0
2017-Nov-23 04:30N 40°57' E 024°28'0 0.0
2017-Nov-23 04:00N 40°57' E 024°28'0 0.0
2017-Nov-23 03:30N 40°57' E 024°28'0 0.0
2017-Nov-23 03:00N 40°57' E 024°28'0 0.0
2017-Nov-23 02:30N 40°57' E 024°28'0 0.0
2017-Nov-23 02:00N 40°57' E 024°28'0 0.0
2017-Nov-23 01:30N 40°57' E 024°28'0 0.0
2017-Nov-23 01:00N 40°57' E 024°28'0 0.0
2017-Nov-23 00:30N 40°57' E 024°28'0 0.0
2017-Nov-23 00:00N 40°57' E 024°28'0 0.0
2017-Nov-22 23:30N 40°57' E 024°28'0 0.0
2017-Nov-22 23:00N 40°57' E 024°28'0 0.0
2017-Nov-22 22:31N 40°57' E 024°28'0 0.0
2017-Nov-22 22:00N 40°57' E 024°28'0 0.0
2017-Nov-22 21:30N 40°57' E 024°28'0 0.0
2017-Nov-22 20:58N 40°57' E 024°28'0 0.0
2017-Nov-22 20:28N 40°57' E 024°28'0 0.0
2017-Nov-22 19:58N 40°57' E 024°28'0 0.0
2017-Nov-22 19:28N 40°57' E 024°28'  
2017-Nov-20 00:28N 40°56' E 024°28'0 0.0
2017-Nov-19 23:58N 40°56' E 024°28'0 0.0
2017-Nov-19 23:28N 40°56' E 024°28'0 0.0
2017-Nov-19 22:58N 40°56' E 024°28'0 0.1
2017-Nov-19 22:28N 40°56' E 024°28'0 0.1
2017-Nov-19 22:01N 40°56' E 024°28'0 0.1
2017-Nov-19 21:28N 40°56' E 024°28'0 0.1
2017-Nov-19 20:58N 40°56' E 024°28'0 0.0
2017-Nov-19 20:28N 40°56' E 024°28'0 0.2
2017-Nov-19 20:01N 40°56' E 024°28'0 0.1
2017-Nov-19 19:28N 40°56' E 024°28'0 0.0
2017-Nov-19 18:58N 40°56' E 024°28'0 0.0
2017-Nov-19 18:28N 40°56' E 024°28'0 0.0
2017-Nov-19 17:58N 40°56' E 024°28'0 0.0
2017-Nov-19 17:28N 40°56' E 024°28'0 0.0
2017-Nov-19 16:58N 40°56' E 024°28'0 0.1
2017-Nov-19 16:28N 40°56' E 024°28'0 0.1
2017-Nov-19 15:58N 40°56' E 024°28'0 0.0
2017-Nov-19 15:28N 40°56' E 024°28'0 0.1
2017-Nov-19 14:58N 40°56' E 024°28'0 0.0
2017-Nov-19 14:28N 40°56' E 024°28'0 0.0
2017-Nov-19 13:58N 40°56' E 024°28'0 0.0
2017-Nov-19 13:28N 40°56' E 024°28'0 0.0
2017-Nov-19 12:58N 40°56' E 024°28'0 0.0
2017-Nov-19 12:28N 40°56' E 024°28'0 0.0
2017-Nov-19 11:58N 40°56' E 024°28'0 0.0
2017-Nov-19 11:28N 40°56' E 024°28'0 0.1
2017-Nov-19 10:59N 40°56' E 024°28'0 0.0
2017-Nov-19 10:29N 40°56' E 024°28'0 0.1
2017-Nov-19 09:59N 40°56' E 024°28'0 0.1
2017-Nov-19 09:29N 40°56' E 024°28'0 0.1
2017-Nov-19 09:00N 40°56' E 024°28'0 0.0
2017-Nov-19 08:30N 40°56' E 024°28'0 0.1
2017-Nov-19 08:00N 40°56' E 024°28'0 0.0
2017-Nov-19 07:30N 40°56' E 024°28'0 0.2
2017-Nov-19 07:00N 40°56' E 024°28'0 0.0
2017-Nov-19 06:30N 40°56' E 024°28'0 0.0
2017-Nov-19 06:00N 40°56' E 024°28'0 0.0
2017-Nov-19 05:12N 40°56' E 024°28'0 0.0
2017-Nov-19 05:00N 40°56' E 024°28'0 0.0
2017-Nov-19 04:30N 40°56' E 024°28'0 0.0
2017-Nov-19 04:00N 40°56' E 024°28'0 0.0
2017-Nov-19 03:30N 40°56' E 024°28'0 0.0
2017-Nov-19 03:00N 40°56' E 024°28'0 0.0
2017-Nov-19 02:30N 40°56' E 024°28'0 0.0
2017-Nov-19 02:00N 40°56' E 024°28'0 0.0
2017-Nov-19 01:30N 40°56' E 024°28'0 0.0
2017-Nov-19 01:00N 40°56' E 024°28'0 0.0
2017-Nov-19 00:30N 40°56' E 024°28'0 0.0
2017-Nov-19 00:00N 40°56' E 024°28'0 0.0
2017-Nov-18 23:30N 40°56' E 024°28'0 0.0
2017-Nov-18 22:57N 40°56' E 024°28'0 0.0
2017-Nov-18 22:30N 40°56' E 024°28'0 0.0
2017-Nov-18 22:00N 40°56' E 024°28'0 0.0
2017-Nov-18 21:27N 40°56' E 024°28'0 0.0
2017-Nov-18 21:00N 40°56' E 024°28'0 0.0
2017-Nov-18 20:30N 40°56' E 024°28'0 0.0
2017-Nov-18 20:00N 40°56' E 024°28'0 0.0
2017-Nov-18 19:30N 40°56' E 024°28'0 0.0
2017-Nov-18 19:00N 40°56' E 024°28'0 0.0
2017-Nov-18 18:30N 40°56' E 024°28'0 0.0
2017-Nov-18 18:00N 40°56' E 024°28'0 0.0
2017-Nov-18 17:30N 40°56' E 024°28'0 0.0
2017-Nov-18 17:00N 40°56' E 024°28'0 0.0
2017-Nov-18 16:30N 40°56' E 024°28'0 0.0
2017-Nov-18 16:00N 40°56' E 024°28'0 0.0
2017-Nov-18 15:30N 40°56' E 024°28'0 0.0
2017-Nov-18 15:00N 40°56' E 024°28'0 0.2
2017-Nov-18 14:28N 40°56' E 024°28'0 0.1
2017-Nov-18 13:58N 40°56' E 024°28'0 0.0
2017-Nov-18 13:28N 40°56' E 024°28'0 0.0
2017-Nov-18 12:58N 40°56' E 024°28'0 0.1
2017-Nov-18 12:28N 40°56' E 024°28'0 0.1
2017-Nov-18 11:58N 40°56' E 024°28'0 0.0
2017-Nov-18 11:28N 40°56' E 024°28'0 0.0
2017-Nov-18 11:01N 40°56' E 024°28'0 0.0
2017-Nov-18 10:29N 40°56' E 024°28'0 0.0
2017-Nov-18 09:59N 40°56' E 024°28'0 0.1
2017-Nov-18 09:23N 40°56' E 024°28'0 0.0
2017-Nov-18 08:59N 40°56' E 024°28'0 0.0
2017-Nov-18 08:29N 40°56' E 024°28'0 0.1
2017-Nov-18 07:59N 40°56' E 024°28'0 0.0
2017-Nov-18 07:29N 40°56' E 024°28'0 0.0
2017-Nov-18 06:59N 40°56' E 024°28'0 0.0
2017-Nov-18 06:29N 40°56' E 024°28'0 0.0
2017-Nov-18 05:59N 40°56' E 024°28'0 0.0
2017-Nov-18 05:29N 40°56' E 024°28'0 0.1
2017-Nov-18 04:59N 40°56' E 024°28'0 0.1
2017-Nov-18 04:29N 40°56' E 024°28'0 0.0
2017-Nov-18 03:59N 40°56' E 024°28'0 0.0
2017-Nov-18 03:29N 40°56' E 024°28'0 0.1
2017-Nov-18 02:59N 40°56' E 024°28'0 0.0
2017-Nov-18 02:29N 40°56' E 024°28'0 0.0
2017-Nov-18 01:59N 40°56' E 024°28'0 0.1
2017-Nov-18 01:29N 40°56' E 024°28'0 0.1
2017-Nov-18 00:59N 40°56' E 024°28'0 0.2
2017-Nov-18 00:29N 40°56' E 024°28'0 0.1
2017-Nov-17 23:59N 40°56' E 024°28'0 0.0
2017-Nov-17 23:29N 40°56' E 024°28'0 0.0
2017-Nov-17 23:00N 40°56' E 024°28'0 0.0
2017-Nov-17 22:30N 40°56' E 024°28'0 0.1
2017-Nov-17 22:00N 40°56' E 024°28'3 5.3
2017-Nov-17 21:30N 40°53' E 024°28'5 9.3
2017-Nov-17 21:00N 40°49' E 024°26'4 8.9
2017-Nov-17 20:30N 40°44' E 024°25'4 8.4
2017-Nov-17 20:00N 40°40' E 024°25'5 9.7
2017-Nov-17 19:30N 40°36' E 024°28'5 8.9
2017-Nov-17 19:00N 40°31' E 024°28'5 9.1
2017-Nov-17 18:30N 40°27' E 024°30'5 9.4
2017-Nov-17 17:59N 40°23' E 024°33'5 9.9
2017-Nov-17 17:30N 40°19' E 024°36'5 9.9
2017-Nov-17 16:59N 40°15' E 024°40'510.0
2017-Nov-17 16:29N 40°11' E 024°44'  
Track history (hours):
 
Tides and Currents Weather Stations Pressure Air Temp Water Temp Dewpoint Dewpoint Depression Visibility Wind Speed Wind Dir Waves Ship Positions

Forester

Last reported at 2017-Nov-27 07:48 UTC. Time now 2017-Dec-11 22:52 UTC.
Position N 36°59' E 013°42'.
Warning: this ship's position is 14 days out of date.

Length 89 m; draft 6.7 m.

Type: Cargo ship. MMSI: 518682000.

Date/timePositionNaut miles runAvg speedWind from/ knotsBaromVisibWave heightAir tempDewpointWater temp
2017-Nov-27 07:48N 36°59' E 013°42'2 5.0
2017-Nov-27 07:28N 36°58' E 013°44'3 4.8
2017-Nov-27 06:51N 36°57' E 013°48'2 4.8
2017-Nov-27 06:30N 36°56' E 013°50'2 4.7
2017-Nov-27 06:00N 36°55' E 013°52'3 5.0
2017-Nov-27 05:26N 36°54' E 013°55'2 5.5
2017-Nov-27 04:59N 36°53' E 013°58'3 5.5
2017-Nov-27 04:30N 36°52' E 014°01'3 5.3
2017-Nov-27 04:00N 36°50' E 014°04'3 5.4
2017-Nov-27 03:30N 36°49' E 014°07'3 5.7
2017-Nov-27 03:00N 36°48' E 014°10'3 5.6
2017-Nov-27 02:30N 36°48' E 014°14'3 5.7
2017-Nov-27 02:00N 36°47' E 014°17'3 5.4
2017-Nov-27 01:30N 36°46' E 014°20'2 5.0
2017-Nov-27 01:00N 36°44' E 014°23'2 4.4
2017-Nov-27 00:30N 36°44' E 014°25'2 4.2
2017-Nov-27 00:00N 36°43' E 014°28'2 4.0
2017-Nov-26 23:30N 36°42' E 014°30'390 7.6
2017-Nov-24 20:06N 36°23' E 022°35'1 8.4
2017-Nov-24 20:00N 36°23' E 022°36'20 8.8
2017-Nov-24 17:46N 36°26' E 023°01'35 7.8
2017-Nov-24 13:17N 36°50' E 023°32'4 8.6
2017-Nov-24 12:49N 36°53' E 023°35'6 8.6
2017-Nov-24 12:07N 36°58' E 023°38'3 8.4
2017-Nov-24 11:44N 37°01' E 023°41'3 8.5
2017-Nov-24 11:22N 37°04' E 023°43'3 8.5
2017-Nov-24 10:57N 37°07' E 023°45'7 8.6
2017-Nov-24 10:12N 37°12' E 023°50'3 8.8
2017-Nov-24 09:49N 37°15' E 023°52'3 9.1
2017-Nov-24 09:30N 37°17' E 023°54'6 8.9
2017-Nov-24 08:53N 37°22' E 023°57'3 8.8
2017-Nov-24 08:30N 37°25' E 023°60'5 9.0
2017-Nov-24 07:57N 37°29' E 024°03'4 8.9
2017-Nov-24 07:30N 37°33' E 024°05'5 8.8
2017-Nov-24 06:59N 37°37' E 024°09'4 9.1
2017-Nov-24 06:30N 37°40' E 024°12'5 8.9
2017-Nov-24 05:59N 37°44' E 024°15'4 8.7
2017-Nov-24 05:30N 37°46' E 024°19'4 8.5
2017-Nov-24 05:00N 37°49' E 024°23'4 8.8
2017-Nov-24 04:30N 37°52' E 024°28'4 8.6
2017-Nov-24 04:00N 37°55' E 024°32'4 8.6
2017-Nov-24 03:30N 37°58' E 024°35'137 8.3
2017-Nov-23 11:01N 40°15' E 024°29'0 8.9
2017-Nov-23 11:00N 40°15' E 024°29'4 8.6
2017-Nov-23 10:30N 40°20' E 024°29'4 8.4
2017-Nov-23 10:00N 40°24' E 024°28'5 8.5
2017-Nov-23 09:21N 40°29' E 024°27'4 8.7
2017-Nov-23 08:54N 40°33' E 024°26'4 8.9
2017-Nov-23 08:30N 40°37' E 024°25'4 8.9
2017-Nov-23 08:00N 40°41' E 024°25'4 8.6
2017-Nov-23 07:30N 40°45' E 024°26'4 8.7
2017-Nov-23 07:00N 40°50' E 024°27'4 8.6
2017-Nov-23 06:30N 40°54' E 024°28'3 5.8
2017-Nov-23 06:01N 40°57' E 024°28'0 0.1
2017-Nov-23 05:30N 40°57' E 024°28'0 0.0
2017-Nov-23 05:00N 40°57' E 024°28'0 0.0
2017-Nov-23 04:30N 40°57' E 024°28'0 0.0
2017-Nov-23 04:00N 40°57' E 024°28'0 0.0
2017-Nov-23 03:30N 40°57' E 024°28'0 0.0
2017-Nov-23 03:00N 40°57' E 024°28'0 0.0
2017-Nov-23 02:30N 40°57' E 024°28'0 0.0
2017-Nov-23 02:00N 40°57' E 024°28'0 0.0
2017-Nov-23 01:30N 40°57' E 024°28'0 0.0
2017-Nov-23 01:00N 40°57' E 024°28'0 0.0
2017-Nov-23 00:30N 40°57' E 024°28'0 0.0
2017-Nov-23 00:00N 40°57' E 024°28'0 0.0
2017-Nov-22 23:30N 40°57' E 024°28'0 0.0
2017-Nov-22 23:00N 40°57' E 024°28'0 0.0
2017-Nov-22 22:31N 40°57' E 024°28'0 0.0
2017-Nov-22 22:00N 40°57' E 024°28'0 0.0
2017-Nov-22 21:30N 40°57' E 024°28'0 0.0
2017-Nov-22 20:58N 40°57' E 024°28'0 0.0
2017-Nov-22 20:28N 40°57' E 024°28'0 0.0
2017-Nov-22 19:58N 40°57' E 024°28'0 0.0
2017-Nov-22 19:28N 40°57' E 024°28'  
2017-Nov-20 00:28N 40°56' E 024°28'0 0.0
2017-Nov-19 23:58N 40°56' E 024°28'0 0.0
2017-Nov-19 23:28N 40°56' E 024°28'0 0.0
2017-Nov-19 22:58N 40°56' E 024°28'0 0.1
2017-Nov-19 22:28N 40°56' E 024°28'0 0.1
2017-Nov-19 22:01N 40°56' E 024°28'0 0.1
2017-Nov-19 21:28N 40°56' E 024°28'0 0.1
2017-Nov-19 20:58N 40°56' E 024°28'0 0.0
2017-Nov-19 20:28N 40°56' E 024°28'0 0.2
2017-Nov-19 20:01N 40°56' E 024°28'0 0.1
2017-Nov-19 19:28N 40°56' E 024°28'0 0.0
2017-Nov-19 18:58N 40°56' E 024°28'0 0.0
2017-Nov-19 18:28N 40°56' E 024°28'0 0.0
2017-Nov-19 17:58N 40°56' E 024°28'0 0.0
2017-Nov-19 17:28N 40°56' E 024°28'0 0.0
2017-Nov-19 16:58N 40°56' E 024°28'0 0.1
2017-Nov-19 16:28N 40°56' E 024°28'0 0.1
2017-Nov-19 15:58N 40°56' E 024°28'0 0.0
2017-Nov-19 15:28N 40°56' E 024°28'0 0.1
2017-Nov-19 14:58N 40°56' E 024°28'0 0.0
2017-Nov-19 14:28N 40°56' E 024°28'0 0.0
2017-Nov-19 13:58N 40°56' E 024°28'0 0.0
2017-Nov-19 13:28N 40°56' E 024°28'0 0.0
2017-Nov-19 12:58N 40°56' E 024°28'0 0.0
2017-Nov-19 12:28N 40°56' E 024°28'0 0.0
2017-Nov-19 11:58N 40°56' E 024°28'0 0.0
2017-Nov-19 11:28N 40°56' E 024°28'0 0.1
2017-Nov-19 10:59N 40°56' E 024°28'0 0.0
2017-Nov-19 10:29N 40°56' E 024°28'0 0.1
2017-Nov-19 09:59N 40°56' E 024°28'0 0.1
2017-Nov-19 09:29N 40°56' E 024°28'0 0.1
2017-Nov-19 09:00N 40°56' E 024°28'0 0.0
2017-Nov-19 08:30N 40°56' E 024°28'0 0.1
2017-Nov-19 08:00N 40°56' E 024°28'0 0.0
2017-Nov-19 07:30N 40°56' E 024°28'0 0.2
2017-Nov-19 07:00N 40°56' E 024°28'0 0.0
2017-Nov-19 06:30N 40°56' E 024°28'0 0.0
2017-Nov-19 06:00N 40°56' E 024°28'0 0.0
2017-Nov-19 05:12N 40°56' E 024°28'0 0.0
2017-Nov-19 05:00N 40°56' E 024°28'0 0.0
2017-Nov-19 04:30N 40°56' E 024°28'0 0.0
2017-Nov-19 04:00N 40°56' E 024°28'0 0.0
2017-Nov-19 03:30N 40°56' E 024°28'0 0.0
2017-Nov-19 03:00N 40°56' E 024°28'0 0.0
2017-Nov-19 02:30N 40°56' E 024°28'0 0.0
2017-Nov-19 02:00N 40°56' E 024°28'0 0.0
2017-Nov-19 01:30N 40°56' E 024°28'0 0.0
2017-Nov-19 01:00N 40°56' E 024°28'0 0.0
2017-Nov-19 00:30N 40°56' E 024°28'0 0.0
2017-Nov-19 00:00N 40°56' E 024°28'0 0.0
2017-Nov-18 23:30N 40°56' E 024°28'0 0.0
2017-Nov-18 22:57N 40°56' E 024°28'0 0.0
2017-Nov-18 22:30N 40°56' E 024°28'0 0.0
2017-Nov-18 22:00N 40°56' E 024°28'0 0.0
2017-Nov-18 21:27N 40°56' E 024°28'0 0.0
2017-Nov-18 21:00N 40°56' E 024°28'0 0.0
2017-Nov-18 20:30N 40°56' E 024°28'0 0.0
2017-Nov-18 20:00N 40°56' E 024°28'0 0.0
2017-Nov-18 19:30N 40°56' E 024°28'0 0.0
2017-Nov-18 19:00N 40°56' E 024°28'0 0.0
2017-Nov-18 18:30N 40°56' E 024°28'0 0.0
2017-Nov-18 18:00N 40°56' E 024°28'0 0.0
2017-Nov-18 17:30N 40°56' E 024°28'0 0.0
2017-Nov-18 17:00N 40°56' E 024°28'0 0.0
2017-Nov-18 16:30N 40°56' E 024°28'0 0.0
2017-Nov-18 16:00N 40°56' E 024°28'0 0.0
2017-Nov-18 15:30N 40°56' E 024°28'0 0.0
2017-Nov-18 15:00N 40°56' E 024°28'0 0.2
2017-Nov-18 14:28N 40°56' E 024°28'0 0.1
2017-Nov-18 13:58N 40°56' E 024°28'0 0.0
2017-Nov-18 13:28N 40°56' E 024°28'0 0.0
2017-Nov-18 12:58N 40°56' E 024°28'0 0.1
2017-Nov-18 12:28N 40°56' E 024°28'0 0.1
2017-Nov-18 11:58N 40°56' E 024°28'0 0.0
2017-Nov-18 11:28N 40°56' E 024°28'0 0.0
2017-Nov-18 11:01N 40°56' E 024°28'0 0.0
2017-Nov-18 10:29N 40°56' E 024°28'0 0.0
2017-Nov-18 09:59N 40°56' E 024°28'0 0.1
2017-Nov-18 09:23N 40°56' E 024°28'0 0.0
2017-Nov-18 08:59N 40°56' E 024°28'0 0.0
2017-Nov-18 08:29N 40°56' E 024°28'0 0.1
2017-Nov-18 07:59N 40°56' E 024°28'0 0.0
2017-Nov-18 07:29N 40°56' E 024°28'0 0.0
2017-Nov-18 06:59N 40°56' E 024°28'0 0.0
2017-Nov-18 06:29N 40°56' E 024°28'0 0.0
2017-Nov-18 05:59N 40°56' E 024°28'0 0.0
2017-Nov-18 05:29N 40°56' E 024°28'0 0.1
2017-Nov-18 04:59N 40°56' E 024°28'0 0.1
2017-Nov-18 04:29N 40°56' E 024°28'0 0.0
2017-Nov-18 03:59N 40°56' E 024°28'0 0.0
2017-Nov-18 03:29N 40°56' E 024°28'0 0.1
2017-Nov-18 02:59N 40°56' E 024°28'0 0.0
2017-Nov-18 02:29N 40°56' E 024°28'0 0.0
2017-Nov-18 01:59N 40°56' E 024°28'0 0.1
2017-Nov-18 01:29N 40°56' E 024°28'0 0.1
2017-Nov-18 00:59N 40°56' E 024°28'0 0.2
2017-Nov-18 00:29N 40°56' E 024°28'0 0.1
2017-Nov-17 23:59N 40°56' E 024°28'0 0.0
2017-Nov-17 23:29N 40°56' E 024°28'0 0.0
2017-Nov-17 23:00N 40°56' E 024°28'0 0.0
2017-Nov-17 22:30N 40°56' E 024°28'0 0.1
2017-Nov-17 22:00N 40°56' E 024°28'3 5.3
2017-Nov-17 21:30N 40°53' E 024°28'5 9.3
2017-Nov-17 21:00N 40°49' E 024°26'4 8.9
2017-Nov-17 20:30N 40°44' E 024°25'4 8.4
2017-Nov-17 20:00N 40°40' E 024°25'5 9.7
2017-Nov-17 19:30N 40°36' E 024°28'5 8.9
2017-Nov-17 19:00N 40°31' E 024°28'5 9.1
2017-Nov-17 18:30N 40°27' E 024°30'5 9.4
2017-Nov-17 17:59N 40°23' E 024°33'5 9.9
2017-Nov-17 17:30N 40°19' E 024°36'5 9.9
2017-Nov-17 16:59N 40°15' E 024°40'510.0
2017-Nov-17 16:29N 40°11' E 024°44'  

Dump ship's entire track history